sensor_id;sensor_type;location;lat;lon;timestamp;temperature;humidity
57434;DHT22;43277;52.672;6.984;2023-02-22T00:00:52;8.70;99.90
57434;DHT22;43277;52.672;6.984;2023-02-22T00:03:23;8.70;99.90
57434;DHT22;43277;52.672;6.984;2023-02-22T00:05:56;8.70;99.90
57434;DHT22;43277;52.672;6.984;2023-02-22T00:08:26;8.70;99.90
57434;DHT22;43277;52.672;6.984;2023-02-22T00:10:58;8.70;99.90
57434;DHT22;43277;52.672;6.984;2023-02-22T00:13:24;8.70;99.90
57434;DHT22;43277;52.672;6.984;2023-02-22T00:15:54;8.70;99.90
57434;DHT22;43277;52.672;6.984;2023-02-22T00:18:19;8.60;99.90
57434;DHT22;43277;52.672;6.984;2023-02-22T00:20:45;8.60;99.90
57434;DHT22;43277;52.672;6.984;2023-02-22T00:23:19;8.70;99.90
57434;DHT22;43277;52.672;6.984;2023-02-22T00:25:47;8.60;99.90
57434;DHT22;43277;52.672;6.984;2023-02-22T00:28:14;8.70;99.90
57434;DHT22;43277;52.672;6.984;2023-02-22T00:30:40;8.70;99.90
57434;DHT22;43277;52.672;6.984;2023-02-22T00:33:09;8.60;99.90
57434;DHT22;43277;52.672;6.984;2023-02-22T00:35:34;8.60;99.90
57434;DHT22;43277;52.672;6.984;2023-02-22T00:38:01;8.60;99.90
57434;DHT22;43277;52.672;6.984;2023-02-22T00:40:29;8.60;99.90
57434;DHT22;43277;52.672;6.984;2023-02-22T00:43:00;8.60;99.90
57434;DHT22;43277;52.672;6.984;2023-02-22T00:45:28;8.60;99.90
57434;DHT22;43277;52.672;6.984;2023-02-22T00:47:55;8.60;99.90
57434;DHT22;43277;52.672;6.984;2023-02-22T00:50:22;8.60;99.90
57434;DHT22;43277;52.672;6.984;2023-02-22T00:52:48;8.60;99.90
57434;DHT22;43277;52.672;6.984;2023-02-22T00:55:21;8.70;99.90
57434;DHT22;43277;52.672;6.984;2023-02-22T00:57:47;8.60;99.90
57434;DHT22;43277;52.672;6.984;2023-02-22T01:00:23;8.60;99.90
57434;DHT22;43277;52.672;6.984;2023-02-22T01:02:50;8.60;99.90
57434;DHT22;43277;52.672;6.984;2023-02-22T01:05:19;8.60;99.90
57434;DHT22;43277;52.672;6.984;2023-02-22T01:07:46;8.60;99.90
57434;DHT22;43277;52.672;6.984;2023-02-22T01:10:12;8.60;99.90
57434;DHT22;43277;52.672;6.984;2023-02-22T01:12:38;8.70;99.90
57434;DHT22;43277;52.672;6.984;2023-02-22T01:15:07;8.60;99.90
57434;DHT22;43277;52.672;6.984;2023-02-22T01:17:35;8.60;99.90
57434;DHT22;43277;52.672;6.984;2023-02-22T01:20:02;8.60;99.90
57434;DHT22;43277;52.672;6.984;2023-02-22T01:22:32;8.60;99.90
57434;DHT22;43277;52.672;6.984;2023-02-22T01:24:57;8.60;99.90
57434;DHT22;43277;52.672;6.984;2023-02-22T01:27:23;8.60;99.90
57434;DHT22;43277;52.672;6.984;2023-02-22T01:29:48;8.60;99.90
57434;DHT22;43277;52.672;6.984;2023-02-22T01:32:14;8.60;99.90
57434;DHT22;43277;52.672;6.984;2023-02-22T01:34:40;8.60;99.90
57434;DHT22;43277;52.672;6.984;2023-02-22T01:37:06;8.60;99.90
57434;DHT22;43277;52.672;6.984;2023-02-22T01:39:32;8.60;99.90
57434;DHT22;43277;52.672;6.984;2023-02-22T01:41:58;8.60;99.90
57434;DHT22;43277;52.672;6.984;2023-02-22T01:44:29;8.60;99.90
57434;DHT22;43277;52.672;6.984;2023-02-22T01:46:56;8.60;99.90
57434;DHT22;43277;52.672;6.984;2023-02-22T01:49:30;8.60;99.90
57434;DHT22;43277;52.672;6.984;2023-02-22T01:51:58;8.70;99.90
57434;DHT22;43277;52.672;6.984;2023-02-22T01:54:35;8.60;99.90
57434;DHT22;43277;52.672;6.984;2023-02-22T01:57:11;8.60;99.90
57434;DHT22;43277;52.672;6.984;2023-02-22T01:59:41;8.60;99.90
57434;DHT22;43277;52.672;6.984;2023-02-22T02:02:07;8.60;99.90
57434;DHT22;43277;52.672;6.984;2023-02-22T02:04:34;8.60;99.90
57434;DHT22;43277;52.672;6.984;2023-02-22T02:07:04;8.60;99.90
57434;DHT22;43277;52.672;6.984;2023-02-22T02:12:14;8.60;99.90
57434;DHT22;43277;52.672;6.984;2023-02-22T02:14:41;8.50;99.90
57434;DHT22;43277;52.672;6.984;2023-02-22T02:17:12;8.50;99.90
57434;DHT22;43277;52.672;6.984;2023-02-22T02:38:49;8.50;99.90
57434;DHT22;43277;52.672;6.984;2023-02-22T02:41:24;8.50;99.90
57434;DHT22;43277;52.672;6.984;2023-02-22T02:46:42;8.50;99.90
57434;DHT22;43277;52.672;6.984;2023-02-22T02:49:14;8.50;99.90
57434;DHT22;43277;52.672;6.984;2023-02-22T02:51:47;8.50;99.90
57434;DHT22;43277;52.672;6.984;2023-02-22T02:54:13;8.50;99.90
57434;DHT22;43277;52.672;6.984;2023-02-22T02:56:40;8.50;99.90
57434;DHT22;43277;52.672;6.984;2023-02-22T02:59:26;8.50;99.90
57434;DHT22;43277;52.672;6.984;2023-02-22T03:21:00;8.40;99.90
57434;DHT22;43277;52.672;6.984;2023-02-22T03:23:45;8.40;99.90
57434;DHT22;43277;52.672;6.984;2023-02-22T03:26:20;8.50;99.90
57434;DHT22;43277;52.672;6.984;2023-02-22T03:28:50;8.50;99.90
57434;DHT22;43277;52.672;6.984;2023-02-22T03:31:23;8.40;99.90
57434;DHT22;43277;52.672;6.984;2023-02-22T03:34:24;8.40;99.90
57434;DHT22;43277;52.672;6.984;2023-02-22T03:37:02;8.40;99.90
57434;DHT22;43277;52.672;6.984;2023-02-22T03:39:32;8.40;99.90
57434;DHT22;43277;52.672;6.984;2023-02-22T03:42:04;8.40;99.90
57434;DHT22;43277;52.672;6.984;2023-02-22T03:44:32;8.40;99.90
57434;DHT22;43277;52.672;6.984;2023-02-22T03:47:01;8.40;99.90
57434;DHT22;43277;52.672;6.984;2023-02-22T03:49:36;8.40;99.90
57434;DHT22;43277;52.672;6.984;2023-02-22T03:52:03;8.40;99.90
57434;DHT22;43277;52.672;6.984;2023-02-22T03:54:30;8.30;99.90
57434;DHT22;43277;52.672;6.984;2023-02-22T03:56:59;8.40;99.90
57434;DHT22;43277;52.672;6.984;2023-02-22T03:59:27;8.40;99.90
57434;DHT22;43277;52.672;6.984;2023-02-22T04:01:54;8.40;99.90
57434;DHT22;43277;52.672;6.984;2023-02-22T04:04:21;8.40;99.90
57434;DHT22;43277;52.672;6.984;2023-02-22T04:06:48;8.40;99.90
57434;DHT22;43277;52.672;6.984;2023-02-22T04:09:14;8.40;99.90
57434;DHT22;43277;52.672;6.984;2023-02-22T04:11:40;8.40;99.90
57434;DHT22;43277;52.672;6.984;2023-02-22T04:14:05;8.40;99.90
57434;DHT22;43277;52.672;6.984;2023-02-22T04:16:31;8.30;99.90
57434;DHT22;43277;52.672;6.984;2023-02-22T04:18:57;8.40;99.90
57434;DHT22;43277;52.672;6.984;2023-02-22T04:21:22;8.40;99.90
57434;DHT22;43277;52.672;6.984;2023-02-22T04:23:48;8.40;99.90
57434;DHT22;43277;52.672;6.984;2023-02-22T04:26:14;8.40;99.90
57434;DHT22;43277;52.672;6.984;2023-02-22T04:28:39;8.40;99.90
57434;DHT22;43277;52.672;6.984;2023-02-22T04:31:05;8.30;99.90
57434;DHT22;43277;52.672;6.984;2023-02-22T04:33:31;8.30;99.90
57434;DHT22;43277;52.672;6.984;2023-02-22T04:35:56;8.30;99.90
57434;DHT22;43277;52.672;6.984;2023-02-22T04:38:23;8.30;99.90
57434;DHT22;43277;52.672;6.984;2023-02-22T04:40:51;8.30;99.90
57434;DHT22;43277;52.672;6.984;2023-02-22T04:43:17;8.20;99.90
57434;DHT22;43277;52.672;6.984;2023-02-22T04:45:42;8.20;99.90
57434;DHT22;43277;52.672;6.984;2023-02-22T04:48:08;8.20;99.90
57434;DHT22;43277;52.672;6.984;2023-02-22T04:50:34;8.20;99.90
57434;DHT22;43277;52.672;6.984;2023-02-22T04:52:59;8.20;99.90
57434;DHT22;43277;52.672;6.984;2023-02-22T04:55:25;8.20;99.90
57434;DHT22;43277;52.672;6.984;2023-02-22T04:57:53;8.20;99.90
57434;DHT22;43277;52.672;6.984;2023-02-22T05:00:19;8.10;99.90
57434;DHT22;43277;52.672;6.984;2023-02-22T05:02:47;8.10;99.90
57434;DHT22;43277;52.672;6.984;2023-02-22T05:05:17;8.10;99.90
57434;DHT22;43277;52.672;6.984;2023-02-22T05:07:43;8.10;99.90
57434;DHT22;43277;52.672;6.984;2023-02-22T05:10:10;8.10;99.90
57434;DHT22;43277;52.672;6.984;2023-02-22T05:12:36;8.00;99.90
57434;DHT22;43277;52.672;6.984;2023-02-22T05:15:03;8.00;99.90
57434;DHT22;43277;52.672;6.984;2023-02-22T05:17:29;8.00;99.90
57434;DHT22;43277;52.672;6.984;2023-02-22T05:19:55;8.00;99.90
57434;DHT22;43277;52.672;6.984;2023-02-22T05:22:20;8.00;99.90
57434;DHT22;43277;52.672;6.984;2023-02-22T05:24:46;8.00;99.90
57434;DHT22;43277;52.672;6.984;2023-02-22T05:27:11;7.90;99.90
57434;DHT22;43277;52.672;6.984;2023-02-22T05:29:37;8.00;99.90
57434;DHT22;43277;52.672;6.984;2023-02-22T05:32:04;8.00;99.90
57434;DHT22;43277;52.672;6.984;2023-02-22T05:34:31;7.90;99.90
57434;DHT22;43277;52.672;6.984;2023-02-22T05:36:56;7.90;99.90
57434;DHT22;43277;52.672;6.984;2023-02-22T05:39:22;8.00;99.90
57434;DHT22;43277;52.672;6.984;2023-02-22T05:41:48;8.00;99.90
57434;DHT22;43277;52.672;6.984;2023-02-22T05:44:14;7.90;99.90
57434;DHT22;43277;52.672;6.984;2023-02-22T05:46:39;7.90;99.90
57434;DHT22;43277;52.672;6.984;2023-02-22T05:49:05;7.90;99.90
57434;DHT22;43277;52.672;6.984;2023-02-22T05:51:31;8.00;99.90
57434;DHT22;43277;52.672;6.984;2023-02-22T05:53:58;7.90;99.90
57434;DHT22;43277;52.672;6.984;2023-02-22T05:56:25;7.90;99.90
57434;DHT22;43277;52.672;6.984;2023-02-22T05:58:51;7.90;99.90
57434;DHT22;43277;52.672;6.984;2023-02-22T06:01:17;7.90;99.90
57434;DHT22;43277;52.672;6.984;2023-02-22T06:03:46;7.90;99.90
57434;DHT22;43277;52.672;6.984;2023-02-22T06:06:12;7.80;99.90
57434;DHT22;43277;52.672;6.984;2023-02-22T06:08:37;7.80;99.90
57434;DHT22;43277;52.672;6.984;2023-02-22T06:11:04;7.70;99.90
57434;DHT22;43277;52.672;6.984;2023-02-22T06:13:30;7.70;99.90
57434;DHT22;43277;52.672;6.984;2023-02-22T06:15:55;7.60;99.90
57434;DHT22;43277;52.672;6.984;2023-02-22T06:18:21;7.60;99.90
57434;DHT22;43277;52.672;6.984;2023-02-22T06:20:47;7.50;99.90
57434;DHT22;43277;52.672;6.984;2023-02-22T06:23:12;7.50;99.90
57434;DHT22;43277;52.672;6.984;2023-02-22T06:25:38;7.50;99.90
57434;DHT22;43277;52.672;6.984;2023-02-22T06:28:04;7.60;99.90
57434;DHT22;43277;52.672;6.984;2023-02-22T06:30:29;7.60;99.90
57434;DHT22;43277;52.672;6.984;2023-02-22T06:32:55;7.60;99.90
57434;DHT22;43277;52.672;6.984;2023-02-22T06:35:21;7.60;99.90
57434;DHT22;43277;52.672;6.984;2023-02-22T06:37:47;7.70;99.90
57434;DHT22;43277;52.672;6.984;2023-02-22T06:40:13;7.60;99.90
57434;DHT22;43277;52.672;6.984;2023-02-22T06:42:39;7.60;99.90
57434;DHT22;43277;52.672;6.984;2023-02-22T06:45:05;7.60;99.90
57434;DHT22;43277;52.672;6.984;2023-02-22T06:47:31;7.70;99.90
57434;DHT22;43277;52.672;6.984;2023-02-22T06:49:58;7.70;99.90
57434;DHT22;43277;52.672;6.984;2023-02-22T06:52:25;7.70;99.90
57434;DHT22;43277;52.672;6.984;2023-02-22T06:54:51;7.70;99.90
57434;DHT22;43277;52.672;6.984;2023-02-22T06:57:16;7.70;99.90
57434;DHT22;43277;52.672;6.984;2023-02-22T06:59:42;7.70;99.90
57434;DHT22;43277;52.672;6.984;2023-02-22T07:02:10;7.70;99.90
57434;DHT22;43277;52.672;6.984;2023-02-22T07:04:36;7.70;99.90
57434;DHT22;43277;52.672;6.984;2023-02-22T07:07:01;7.70;99.90
57434;DHT22;43277;52.672;6.984;2023-02-22T07:09:27;7.70;99.90
57434;DHT22;43277;52.672;6.984;2023-02-22T07:11:52;7.70;99.90
57434;DHT22;43277;52.672;6.984;2023-02-22T07:14:18;7.70;99.90
57434;DHT22;43277;52.672;6.984;2023-02-22T07:16:44;7.70;99.90
57434;DHT22;43277;52.672;6.984;2023-02-22T07:19:09;7.70;99.90
57434;DHT22;43277;52.672;6.984;2023-02-22T07:21:35;7.70;99.90
57434;DHT22;43277;52.672;6.984;2023-02-22T07:24:00;7.70;99.90
57434;DHT22;43277;52.672;6.984;2023-02-22T07:26:26;7.70;99.90
57434;DHT22;43277;52.672;6.984;2023-02-22T07:28:52;7.70;99.90
57434;DHT22;43277;52.672;6.984;2023-02-22T07:31:18;7.70;99.90
57434;DHT22;43277;52.672;6.984;2023-02-22T07:33:45;7.70;99.90
57434;DHT22;43277;52.672;6.984;2023-02-22T07:36:11;7.80;99.90
57434;DHT22;43277;52.672;6.984;2023-02-22T07:38:39;7.70;99.90
57434;DHT22;43277;52.672;6.984;2023-02-22T07:41:05;7.80;99.90
57434;DHT22;43277;52.672;6.984;2023-02-22T07:43:31;7.80;99.90
57434;DHT22;43277;52.672;6.984;2023-02-22T07:45:58;7.80;99.90
57434;DHT22;43277;52.672;6.984;2023-02-22T07:48:27;7.80;99.90
57434;DHT22;43277;52.672;6.984;2023-02-22T07:50:53;7.80;99.90
57434;DHT22;43277;52.672;6.984;2023-02-22T07:53:22;7.80;99.90
57434;DHT22;43277;52.672;6.984;2023-02-22T07:55:48;7.80;99.90
57434;DHT22;43277;52.672;6.984;2023-02-22T07:58:17;7.70;99.90
57434;DHT22;43277;52.672;6.984;2023-02-22T08:00:43;7.70;99.90
57434;DHT22;43277;52.672;6.984;2023-02-22T08:03:11;7.70;99.90
57434;DHT22;43277;52.672;6.984;2023-02-22T08:05:40;7.70;99.90
57434;DHT22;43277;52.672;6.984;2023-02-22T08:08:06;7.60;99.90
57434;DHT22;43277;52.672;6.984;2023-02-22T08:10:33;7.50;99.90
57434;DHT22;43277;52.672;6.984;2023-02-22T08:13:00;7.50;99.90
57434;DHT22;43277;52.672;6.984;2023-02-22T08:15:29;7.50;99.90
57434;DHT22;43277;52.672;6.984;2023-02-22T08:17:59;7.50;99.90
57434;DHT22;43277;52.672;6.984;2023-02-22T08:20:26;7.50;99.90
57434;DHT22;43277;52.672;6.984;2023-02-22T08:22:52;7.40;99.90
57434;DHT22;43277;52.672;6.984;2023-02-22T08:25:19;7.40;99.90
57434;DHT22;43277;52.672;6.984;2023-02-22T08:27:45;7.40;99.90
57434;DHT22;43277;52.672;6.984;2023-02-22T08:30:21;7.40;99.90
57434;DHT22;43277;52.672;6.984;2023-02-22T08:32:48;7.40;99.90
57434;DHT22;43277;52.672;6.984;2023-02-22T08:35:16;7.40;99.90
57434;DHT22;43277;52.672;6.984;2023-02-22T08:37:46;7.40;99.90
57434;DHT22;43277;52.672;6.984;2023-02-22T08:40:13;7.40;99.90
57434;DHT22;43277;52.672;6.984;2023-02-22T08:42:41;7.40;99.90
57434;DHT22;43277;52.672;6.984;2023-02-22T08:45:08;7.40;99.90
57434;DHT22;43277;52.672;6.984;2023-02-22T08:47:34;7.40;99.90
57434;DHT22;43277;52.672;6.984;2023-02-22T08:50:00;7.50;99.90
57434;DHT22;43277;52.672;6.984;2023-02-22T08:52:25;7.50;99.90
57434;DHT22;43277;52.672;6.984;2023-02-22T08:54:51;7.50;99.90
57434;DHT22;43277;52.672;6.984;2023-02-22T08:57:16;7.50;99.90
57434;DHT22;43277;52.672;6.984;2023-02-22T08:59:42;7.60;99.90
57434;DHT22;43277;52.672;6.984;2023-02-22T09:02:15;7.60;99.90
57434;DHT22;43277;52.672;6.984;2023-02-22T09:04:41;7.60;99.90
57434;DHT22;43277;52.672;6.984;2023-02-22T09:07:07;7.60;99.90
57434;DHT22;43277;52.672;6.984;2023-02-22T09:09:33;7.50;99.90
57434;DHT22;43277;52.672;6.984;2023-02-22T09:11:58;7.60;99.90
57434;DHT22;43277;52.672;6.984;2023-02-22T09:14:24;7.60;99.90
57434;DHT22;43277;52.672;6.984;2023-02-22T09:16:49;7.60;99.90
57434;DHT22;43277;52.672;6.984;2023-02-22T09:19:15;7.70;99.90
57434;DHT22;43277;52.672;6.984;2023-02-22T09:21:41;7.70;99.90
57434;DHT22;43277;52.672;6.984;2023-02-22T09:24:07;7.70;99.90
57434;DHT22;43277;52.672;6.984;2023-02-22T09:26:34;7.70;99.90
57434;DHT22;43277;52.672;6.984;2023-02-22T09:29:07;7.70;99.90
57434;DHT22;43277;52.672;6.984;2023-02-22T09:31:39;7.80;99.90
57434;DHT22;43277;52.672;6.984;2023-02-22T09:34:07;7.80;99.90
57434;DHT22;43277;52.672;6.984;2023-02-22T09:36:42;7.80;99.90
57434;DHT22;43277;52.672;6.984;2023-02-22T09:39:08;7.90;99.90
57434;DHT22;43277;52.672;6.984;2023-02-22T09:44:28;7.80;99.90
57434;DHT22;43277;52.672;6.984;2023-02-22T09:47:01;7.80;99.90
57434;DHT22;43277;52.672;6.984;2023-02-22T09:49:36;7.90;99.90
57434;DHT22;43277;52.672;6.984;2023-02-22T09:52:35;7.90;99.90
57434;DHT22;43277;52.672;6.984;2023-02-22T09:55:08;7.90;99.90
57434;DHT22;43277;52.672;6.984;2023-02-22T09:57:38;7.90;99.90
57434;DHT22;43277;52.672;6.984;2023-02-22T10:00:30;7.90;99.90
57434;DHT22;43277;52.672;6.984;2023-02-22T10:03:15;8.00;99.90
57434;DHT22;43277;52.672;6.984;2023-02-22T10:05:48;7.90;99.90
57434;DHT22;43277;52.672;6.984;2023-02-22T10:08:18;8.00;99.90
57434;DHT22;43277;52.672;6.984;2023-02-22T10:10:45;8.00;99.90
57434;DHT22;43277;52.672;6.984;2023-02-22T10:22:08;8.10;99.90
57434;DHT22;43277;52.672;6.984;2023-02-22T10:26:50;8.20;99.90
57434;DHT22;43277;52.672;6.984;2023-02-22T10:29:40;8.20;99.90
57434;DHT22;43277;52.672;6.984;2023-02-22T10:32:15;8.20;99.90
57434;DHT22;43277;52.672;6.984;2023-02-22T10:34:49;8.20;99.90
57434;DHT22;43277;52.672;6.984;2023-02-22T10:37:28;8.20;99.90
57434;DHT22;43277;52.672;6.984;2023-02-22T10:40:17;8.30;99.90
57434;DHT22;43277;52.672;6.984;2023-02-22T10:42:43;8.30;99.90
57434;DHT22;43277;52.672;6.984;2023-02-22T10:45:23;8.30;99.90
57434;DHT22;43277;52.672;6.984;2023-02-22T10:47:49;8.40;99.90
57434;DHT22;43277;52.672;6.984;2023-02-22T10:50:15;8.30;99.90
57434;DHT22;43277;52.672;6.984;2023-02-22T10:52:41;8.40;99.90
57434;DHT22;43277;52.672;6.984;2023-02-22T10:55:12;8.50;99.90
57434;DHT22;43277;52.672;6.984;2023-02-22T10:57:39;8.50;99.90
57434;DHT22;43277;52.672;6.984;2023-02-22T11:00:41;8.50;99.90
57434;DHT22;43277;52.672;6.984;2023-02-22T11:03:21;8.60;99.90
57434;DHT22;43277;52.672;6.984;2023-02-22T11:05:48;8.60;99.90
57434;DHT22;43277;52.672;6.984;2023-02-22T11:10:59;8.60;99.90
57434;DHT22;43277;52.672;6.984;2023-02-22T11:13:30;8.60;99.90
57434;DHT22;43277;52.672;6.984;2023-02-22T11:16:00;8.70;99.90
57434;DHT22;43277;52.672;6.984;2023-02-22T11:18:33;8.60;99.90
57434;DHT22;43277;52.672;6.984;2023-02-22T11:21:07;8.60;99.90
57434;DHT22;43277;52.672;6.984;2023-02-22T11:23:36;8.70;99.90
57434;DHT22;43277;52.672;6.984;2023-02-22T11:26:10;8.70;99.90
57434;DHT22;43277;52.672;6.984;2023-02-22T11:28:48;8.80;99.90
57434;DHT22;43277;52.672;6.984;2023-02-22T11:33:58;8.80;99.90
57434;DHT22;43277;52.672;6.984;2023-02-22T11:36:36;8.80;99.90
57434;DHT22;43277;52.672;6.984;2023-02-22T11:39:20;8.80;99.90
57434;DHT22;43277;52.672;6.984;2023-02-22T11:41:46;8.90;99.90
57434;DHT22;43277;52.672;6.984;2023-02-22T11:44:26;9.00;99.90
57434;DHT22;43277;52.672;6.984;2023-02-22T11:46:54;8.90;99.90
57434;DHT22;43277;52.672;6.984;2023-02-22T11:49:23;8.90;99.90
57434;DHT22;43277;52.672;6.984;2023-02-22T11:51:56;9.00;99.90
57434;DHT22;43277;52.672;6.984;2023-02-22T11:54:26;9.00;99.90
57434;DHT22;43277;52.672;6.984;2023-02-22T11:59:56;9.10;99.90
57434;DHT22;43277;52.672;6.984;2023-02-22T12:02:30;9.00;99.90
57434;DHT22;43277;52.672;6.984;2023-02-22T12:10:47;9.20;99.90
57434;DHT22;43277;52.672;6.984;2023-02-22T12:21:30;8.90;99.90
57434;DHT22;43277;52.672;6.984;2023-02-22T12:24:09;8.90;99.90
57434;DHT22;43277;52.672;6.984;2023-02-22T12:26:56;9.00;99.90
57434;DHT22;43277;52.672;6.984;2023-02-22T12:29:48;9.00;99.90
57434;DHT22;43277;52.672;6.984;2023-02-22T12:32:31;9.10;99.90
57434;DHT22;43277;52.672;6.984;2023-02-22T12:35:14;9.10;99.90
57434;DHT22;43277;52.672;6.984;2023-02-22T12:46:14;9.30;99.90
57434;DHT22;43277;52.672;6.984;2023-02-22T12:51:38;9.30;99.90
57434;DHT22;43277;52.672;6.984;2023-02-22T12:54:50;9.40;99.90
57434;DHT22;43277;52.672;6.984;2023-02-22T13:00:14;9.50;99.90
57434;DHT22;43277;52.672;6.984;2023-02-22T13:02:46;9.60;99.90
57434;DHT22;43277;52.672;6.984;2023-02-22T13:05:15;9.60;99.90
57434;DHT22;43277;52.672;6.984;2023-02-22T13:07:59;9.70;99.90
57434;DHT22;43277;52.672;6.984;2023-02-22T13:26:52;10.00;99.90
57434;DHT22;43277;52.672;6.984;2023-02-22T13:29:38;10.00;99.90
57434;DHT22;43277;52.672;6.984;2023-02-22T13:35:08;10.30;99.90
57434;DHT22;43277;52.672;6.984;2023-02-22T13:37:57;10.40;99.90
57434;DHT22;43277;52.672;6.984;2023-02-22T13:40:46;10.30;99.90
57434;DHT22;43277;52.672;6.984;2023-02-22T13:43:54;10.40;99.90
57434;DHT22;43277;52.672;6.984;2023-02-22T13:52:20;10.70;99.90
57434;DHT22;43277;52.672;6.984;2023-02-22T13:54:54;10.70;99.90
57434;DHT22;43277;52.672;6.984;2023-02-22T13:57:23;10.80;99.90
57434;DHT22;43277;52.672;6.984;2023-02-22T14:08:07;11.00;99.90
57434;DHT22;43277;52.672;6.984;2023-02-22T14:11:02;11.10;99.90
57434;DHT22;43277;52.672;6.984;2023-02-22T14:16:23;11.10;99.90
57434;DHT22;43277;52.672;6.984;2023-02-22T14:21:34;11.20;99.90
57434;DHT22;43277;52.672;6.984;2023-02-22T14:24:13;11.20;99.90
57434;DHT22;43277;52.672;6.984;2023-02-22T14:26:40;11.20;99.90
57434;DHT22;43277;52.672;6.984;2023-02-22T14:29:18;11.20;99.90
57434;DHT22;43277;52.672;6.984;2023-02-22T14:34:13;11.20;99.90
57434;DHT22;43277;52.672;6.984;2023-02-22T14:36:59;11.20;99.90
57434;DHT22;43277;52.672;6.984;2023-02-22T14:39:50;11.10;99.90
57434;DHT22;43277;52.672;6.984;2023-02-22T14:42:35;11.00;99.90
57434;DHT22;43277;52.672;6.984;2023-02-22T14:47:54;11.00;99.90
57434;DHT22;43277;52.672;6.984;2023-02-22T14:50:50;11.00;99.90
57434;DHT22;43277;52.672;6.984;2023-02-22T14:53:22;11.00;99.90
57434;DHT22;43277;52.672;6.984;2023-02-22T14:55:56;11.00;99.90
57434;DHT22;43277;52.672;6.984;2023-02-22T14:58:28;11.00;99.90
57434;DHT22;43277;52.672;6.984;2023-02-22T15:00:56;11.00;99.90
57434;DHT22;43277;52.672;6.984;2023-02-22T15:03:31;11.10;99.90
57434;DHT22;43277;52.672;6.984;2023-02-22T15:06:13;11.20;99.90
57434;DHT22;43277;52.672;6.984;2023-02-22T15:08:43;11.20;99.90
57434;DHT22;43277;52.672;6.984;2023-02-22T15:11:28;11.40;99.90
57434;DHT22;43277;52.672;6.984;2023-02-22T15:13:56;11.50;99.90
57434;DHT22;43277;52.672;6.984;2023-02-22T15:16:27;11.60;99.90
57434;DHT22;43277;52.672;6.984;2023-02-22T15:18:56;11.60;99.90
57434;DHT22;43277;52.672;6.984;2023-02-22T15:21:24;11.70;99.90
57434;DHT22;43277;52.672;6.984;2023-02-22T15:26:33;11.60;99.90
57434;DHT22;43277;52.672;6.984;2023-02-22T15:29:00;11.60;99.90
57434;DHT22;43277;52.672;6.984;2023-02-22T15:31:35;11.60;99.90
57434;DHT22;43277;52.672;6.984;2023-02-22T15:36:40;11.50;99.90
57434;DHT22;43277;52.672;6.984;2023-02-22T15:39:21;11.50;99.90
57434;DHT22;43277;52.672;6.984;2023-02-22T15:42:05;11.50;99.90
57434;DHT22;43277;52.672;6.984;2023-02-22T15:44:40;11.40;99.90
57434;DHT22;43277;52.672;6.984;2023-02-22T15:47:11;11.40;99.90
57434;DHT22;43277;52.672;6.984;2023-02-22T15:49:40;11.30;99.90
57434;DHT22;43277;52.672;6.984;2023-02-22T15:52:18;11.20;99.90
57434;DHT22;43277;52.672;6.984;2023-02-22T15:54:50;11.20;99.90
57434;DHT22;43277;52.672;6.984;2023-02-22T15:57:19;11.20;99.90
57434;DHT22;43277;52.672;6.984;2023-02-22T15:59:55;11.10;99.90
57434;DHT22;43277;52.672;6.984;2023-02-22T16:05:13;11.00;99.90
57434;DHT22;43277;52.672;6.984;2023-02-22T16:07:47;11.10;99.90
57434;DHT22;43277;52.672;6.984;2023-02-22T16:10:18;11.00;99.90
57434;DHT22;43277;52.672;6.984;2023-02-22T16:12:46;11.00;99.90
57434;DHT22;43277;52.672;6.984;2023-02-22T16:15:17;10.90;99.90
57434;DHT22;43277;52.672;6.984;2023-02-22T16:17:43;10.90;99.90
57434;DHT22;43277;52.672;6.984;2023-02-22T16:22:46;10.90;99.90
57434;DHT22;43277;52.672;6.984;2023-02-22T16:27:55;10.70;99.90
57434;DHT22;43277;52.672;6.984;2023-02-22T16:30:23;10.70;99.90
57434;DHT22;43277;52.672;6.984;2023-02-22T16:32:51;10.70;99.90
57434;DHT22;43277;52.672;6.984;2023-02-22T16:35:17;10.70;99.90
57434;DHT22;43277;52.672;6.984;2023-02-22T16:37:46;10.70;99.90
57434;DHT22;43277;52.672;6.984;2023-02-22T16:40:22;10.60;99.90
57434;DHT22;43277;52.672;6.984;2023-02-22T16:42:48;10.50;99.90
57434;DHT22;43277;52.672;6.984;2023-02-22T16:45:17;10.50;99.90
57434;DHT22;43277;52.672;6.984;2023-02-22T16:47:42;10.50;99.90
57434;DHT22;43277;52.672;6.984;2023-02-22T16:50:08;10.50;99.90
57434;DHT22;43277;52.672;6.984;2023-02-22T16:52:34;10.40;99.90
57434;DHT22;43277;52.672;6.984;2023-02-22T16:55:02;10.30;99.90
57434;DHT22;43277;52.672;6.984;2023-02-22T16:57:30;10.30;99.90
57434;DHT22;43277;52.672;6.984;2023-02-22T16:59:56;10.30;99.90
57434;DHT22;43277;52.672;6.984;2023-02-22T17:02:22;10.20;99.90
57434;DHT22;43277;52.672;6.984;2023-02-22T17:04:48;10.20;99.90
57434;DHT22;43277;52.672;6.984;2023-02-22T17:07:18;10.20;99.90
57434;DHT22;43277;52.672;6.984;2023-02-22T17:09:45;10.10;99.90
57434;DHT22;43277;52.672;6.984;2023-02-22T17:12:11;10.10;99.90
57434;DHT22;43277;52.672;6.984;2023-02-22T17:14:38;10.00;99.90
57434;DHT22;43277;52.672;6.984;2023-02-22T17:17:05;10.00;99.90
57434;DHT22;43277;52.672;6.984;2023-02-22T17:19:31;10.00;99.90
57434;DHT22;43277;52.672;6.984;2023-02-22T17:21:57;9.90;99.90
57434;DHT22;43277;52.672;6.984;2023-02-22T17:24:24;9.90;99.90
57434;DHT22;43277;52.672;6.984;2023-02-22T17:26:53;9.90;99.90
57434;DHT22;43277;52.672;6.984;2023-02-22T17:29:20;9.80;99.90
57434;DHT22;43277;52.672;6.984;2023-02-22T17:31:46;9.80;99.90
57434;DHT22;43277;52.672;6.984;2023-02-22T17:34:13;9.80;99.90
57434;DHT22;43277;52.672;6.984;2023-02-22T17:36:38;9.80;99.90
57434;DHT22;43277;52.672;6.984;2023-02-22T17:39:05;9.80;99.90
57434;DHT22;43277;52.672;6.984;2023-02-22T17:41:31;9.70;99.90
57434;DHT22;43277;52.672;6.984;2023-02-22T17:43:56;9.70;99.90
57434;DHT22;43277;52.672;6.984;2023-02-22T17:46:24;9.60;99.90
57434;DHT22;43277;52.672;6.984;2023-02-22T17:48:51;9.70;99.90
57434;DHT22;43277;52.672;6.984;2023-02-22T17:51:21;9.70;99.90
57434;DHT22;43277;52.672;6.984;2023-02-22T17:53:47;9.60;99.90
57434;DHT22;43277;52.672;6.984;2023-02-22T17:56:14;9.70;99.90
57434;DHT22;43277;52.672;6.984;2023-02-22T17:58:46;9.70;99.90
57434;DHT22;43277;52.672;6.984;2023-02-22T18:03:45;9.60;99.90
57434;DHT22;43277;52.672;6.984;2023-02-22T18:06:16;9.60;99.90
57434;DHT22;43277;52.672;6.984;2023-02-22T18:08:45;9.60;99.90
57434;DHT22;43277;52.672;6.984;2023-02-22T18:11:12;9.50;99.90
57434;DHT22;43277;52.672;6.984;2023-02-22T18:13:38;9.60;99.90
57434;DHT22;43277;52.672;6.984;2023-02-22T18:16:04;9.50;99.90
57434;DHT22;43277;52.672;6.984;2023-02-22T18:18:30;9.50;99.90
57434;DHT22;43277;52.672;6.984;2023-02-22T18:20:57;9.50;99.90
57434;DHT22;43277;52.672;6.984;2023-02-22T18:23:26;9.50;99.90
57434;DHT22;43277;52.672;6.984;2023-02-22T18:25:53;9.50;99.90
57434;DHT22;43277;52.672;6.984;2023-02-22T18:28:20;9.50;99.90
57434;DHT22;43277;52.672;6.984;2023-02-22T18:30:46;9.50;99.90
57434;DHT22;43277;52.672;6.984;2023-02-22T18:33:12;9.40;99.90